Carson Airport

Airport
ICAO code: 
KCXP
Summary
ICAO Region: 
NAM
Territory: 
Location: 
Carson, Nevada,
Elevation: 
4697 ft
Coordinates: 
Aerial View: 
39° 11' 29.666" N, 119° 44' 8.639" W
Airport RE: 
Hot and High Operations
Metar
Observation
KCXP 011330Z AUTO 33003KT 10SM CLR M03/M06 A3045 RMK AO2
Station
CARSON CITY
Date/Time
2021-12-01 13:30:00
Wind direction
330°
Wind speed
03 kts
Lowest cloud amount
n/a
Temperature
-3°C
Dew point
-6°C
Humidity
79%
Weather condition
n/a

Description

Carson Airport, also known as Carson City Airport, is a public use airport located 6 km northeast of the central business district of Carson City, in Ormsby County, Nevada.

Climatology

Semi-arid climate (Köppen climate classification BSk) - Little precipitation, hot summers and cool winters, sometimes with large changes in temperature in a 24 hour period.

Runways

Designator Length Width Surface Rops
9/27 1800 23 ASP Yes/Yes
Airport map: 
Aerial View: 

SKYbrary Partners:

Safety knowledge contributed by: